Pittsburgh, PA (15217)

6:31 PM EST on December 10, 2016 (GMT -0500)
Squirrel Hill - Acu-Lipp Station | | Change Station

Elev 1155 ft 40.43 °N, 79.92 °W | Updated 14 seconds ago

Overcast
Overcast
22.3 °F
Feels Like 22 °F
N
0.0
Wind Variable Wind from SW

Today
High -- | Low -- °F
--% Chance of Precip.
Yesterday
High -- | Low -- °F
Precip. -- in
Pressure 30.51 in
Visibility 10.0 miles
Clouds Few 3000 ft
Mostly Cloudy 4500 ft
Windchill 22 °F
Dew Point 15 °F
Humidity 75%
Rainfall 0.00 in
Snow Depth Not available.
7:32 AM 4:53 PM
Waxing Gibbous, 87% visible
METAR KAGC 102253Z 26006KT 10SM FEW030 BKN045 M04/M11 A3044 RMK AO2 SLP332 T10441106
Pressure 30.51 in
Visibility 10.0 miles
Clouds Few 3000 ft
Mostly Cloudy 4500 ft
Windchill 22 °F
Dew Point 15 °F
Humidity 75%
Rainfall 0.00 in
Snow Depth Not available.
7:32 AM 4:53 PM
Waxing Gibbous, 87% visible
METAR KAGC 102253Z 26006KT 10SM FEW030 BKN045 M04/M11 A3044 RMK AO2 SLP332 T10441106

10-Day Weather Forecast

Almanac

Astronomy

Dec. 10, 2016 Rise Set
Actual Time
Civil Twilight
Nautical Twilight
Astronomical Twilight
Moon
Length of Visible Light
Length of Day
Tomorrow will be .
, % of the Moon is Illuminated

Today's Extremes

State Highs State Lows

Community

WunderPhotos

Upload Photos

1,956,671 photos uploaded!

WunderBlog® & News

Nearby

Air Quality

  Air Quality AQ Index Pollutant
Not available.

Snow Depth

Station Depth Elevation

Earthquake Activity

City Distance Mag. Time & Date
Minimum magnitude displayed is 2.5.

Coastal Water Temperatures

Place Temperature

Stations

Nearby Weather Stations

Station Location Temp. Windchill Dew Point Humidity Wind Precip. Elev Updated Type
                   

Watches & Warnings

There are currently no watches in effect.